sensor_id;sensor_type;location;lat;lon;timestamp;temperature;humidity
10282;DHT22;5186;59.472;18.048;2022-08-19T00:01:29;20.50;99.90
10282;DHT22;5186;59.472;18.048;2022-08-19T00:04:00;20.50;99.90
10282;DHT22;5186;59.472;18.048;2022-08-19T00:06:27;20.50;99.90
10282;DHT22;5186;59.472;18.048;2022-08-19T00:08:54;20.50;99.90
10282;DHT22;5186;59.472;18.048;2022-08-19T00:11:19;20.50;99.90
10282;DHT22;5186;59.472;18.048;2022-08-19T00:13:45;20.50;99.90
10282;DHT22;5186;59.472;18.048;2022-08-19T00:16:14;20.50;99.90
10282;DHT22;5186;59.472;18.048;2022-08-19T00:18:39;20.50;99.90
10282;DHT22;5186;59.472;18.048;2022-08-19T00:21:05;20.50;99.90
10282;DHT22;5186;59.472;18.048;2022-08-19T00:23:33;20.50;99.90
10282;DHT22;5186;59.472;18.048;2022-08-19T00:26:00;20.50;99.90
10282;DHT22;5186;59.472;18.048;2022-08-19T00:28:26;20.60;99.90
10282;DHT22;5186;59.472;18.048;2022-08-19T00:30:52;20.60;99.90
10282;DHT22;5186;59.472;18.048;2022-08-19T00:33:18;20.60;99.90
10282;DHT22;5186;59.472;18.048;2022-08-19T00:35:44;20.60;99.90
10282;DHT22;5186;59.472;18.048;2022-08-19T00:38:10;20.60;99.90
10282;DHT22;5186;59.472;18.048;2022-08-19T00:40:35;20.60;99.90
10282;DHT22;5186;59.472;18.048;2022-08-19T00:43:01;20.60;99.90
10282;DHT22;5186;59.472;18.048;2022-08-19T00:45:32;20.60;99.90
10282;DHT22;5186;59.472;18.048;2022-08-19T00:47:59;20.60;99.90
10282;DHT22;5186;59.472;18.048;2022-08-19T00:50:28;20.60;99.90
10282;DHT22;5186;59.472;18.048;2022-08-19T00:52:55;20.70;99.90
10282;DHT22;5186;59.472;18.048;2022-08-19T00:55:24;20.70;99.90
10282;DHT22;5186;59.472;18.048;2022-08-19T00:57:55;20.70;99.90
10282;DHT22;5186;59.472;18.048;2022-08-19T01:00:25;20.70;99.90
10282;DHT22;5186;59.472;18.048;2022-08-19T01:02:52;20.80;99.90
10282;DHT22;5186;59.472;18.048;2022-08-19T01:05:22;20.80;99.90
10282;DHT22;5186;59.472;18.048;2022-08-19T01:07:48;20.70;99.90
10282;DHT22;5186;59.472;18.048;2022-08-19T01:10:19;20.80;99.90
10282;DHT22;5186;59.472;18.048;2022-08-19T01:12:46;20.80;99.90
10282;DHT22;5186;59.472;18.048;2022-08-19T01:15:20;20.80;99.90
10282;DHT22;5186;59.472;18.048;2022-08-19T01:17:47;20.90;99.90
10282;DHT22;5186;59.472;18.048;2022-08-19T01:20:16;20.90;99.90
10282;DHT22;5186;59.472;18.048;2022-08-19T01:22:48;20.90;99.90
10282;DHT22;5186;59.472;18.048;2022-08-19T01:25:18;20.90;99.90
10282;DHT22;5186;59.472;18.048;2022-08-19T01:27:47;20.90;99.90
10282;DHT22;5186;59.472;18.048;2022-08-19T01:30:17;20.90;99.90
10282;DHT22;5186;59.472;18.048;2022-08-19T01:32:43;20.90;99.90
10282;DHT22;5186;59.472;18.048;2022-08-19T01:35:10;21.00;99.90
10282;DHT22;5186;59.472;18.048;2022-08-19T01:37:54;20.90;99.90
10282;DHT22;5186;59.472;18.048;2022-08-19T01:40:24;21.00;99.90
10282;DHT22;5186;59.472;18.048;2022-08-19T01:42:52;21.00;99.90
10282;DHT22;5186;59.472;18.048;2022-08-19T01:45:19;21.00;99.90
10282;DHT22;5186;59.472;18.048;2022-08-19T01:47:46;21.00;99.90
10282;DHT22;5186;59.472;18.048;2022-08-19T01:50:12;21.00;99.90
10282;DHT22;5186;59.472;18.048;2022-08-19T01:52:42;21.10;99.90
10282;DHT22;5186;59.472;18.048;2022-08-19T01:55:15;21.10;99.90
10282;DHT22;5186;59.472;18.048;2022-08-19T01:57:44;21.10;99.90
10282;DHT22;5186;59.472;18.048;2022-08-19T02:00:15;21.10;99.90
10282;DHT22;5186;59.472;18.048;2022-08-19T02:02:41;21.10;99.90
10282;DHT22;5186;59.472;18.048;2022-08-19T02:05:07;21.10;99.90
10282;DHT22;5186;59.472;18.048;2022-08-19T02:07:34;21.10;99.90
10282;DHT22;5186;59.472;18.048;2022-08-19T02:10:05;21.10;99.90
10282;DHT22;5186;59.472;18.048;2022-08-19T02:12:31;21.10;99.90
10282;DHT22;5186;59.472;18.048;2022-08-19T02:14:58;21.10;99.90
10282;DHT22;5186;59.472;18.048;2022-08-19T02:17:23;21.10;99.90
10282;DHT22;5186;59.472;18.048;2022-08-19T02:19:49;21.20;99.90
10282;DHT22;5186;59.472;18.048;2022-08-19T02:22:15;21.20;99.90
10282;DHT22;5186;59.472;18.048;2022-08-19T02:24:41;21.20;99.90
10282;DHT22;5186;59.472;18.048;2022-08-19T02:27:06;21.20;99.90
10282;DHT22;5186;59.472;18.048;2022-08-19T02:29:32;21.20;99.90
10282;DHT22;5186;59.472;18.048;2022-08-19T02:31:57;21.20;99.90
10282;DHT22;5186;59.472;18.048;2022-08-19T02:34:24;21.20;99.90
10282;DHT22;5186;59.472;18.048;2022-08-19T02:36:51;21.20;99.90
10282;DHT22;5186;59.472;18.048;2022-08-19T02:39:17;21.20;99.90
10282;DHT22;5186;59.472;18.048;2022-08-19T02:41:42;21.20;99.90
10282;DHT22;5186;59.472;18.048;2022-08-19T02:44:08;21.20;99.90
10282;DHT22;5186;59.472;18.048;2022-08-19T02:46:34;21.20;99.90
10282;DHT22;5186;59.472;18.048;2022-08-19T02:49:04;21.20;99.90
10282;DHT22;5186;59.472;18.048;2022-08-19T02:51:33;21.20;99.90
10282;DHT22;5186;59.472;18.048;2022-08-19T02:53:59;21.20;99.90
10282;DHT22;5186;59.472;18.048;2022-08-19T02:56:25;21.20;99.90
10282;DHT22;5186;59.472;18.048;2022-08-19T02:58:56;21.20;99.90
10282;DHT22;5186;59.472;18.048;2022-08-19T03:01:25;21.30;99.90
10282;DHT22;5186;59.472;18.048;2022-08-19T03:03:51;21.30;99.90
10282;DHT22;5186;59.472;18.048;2022-08-19T03:06:18;21.30;99.90
10282;DHT22;5186;59.472;18.048;2022-08-19T03:08:45;21.30;99.90
10282;DHT22;5186;59.472;18.048;2022-08-19T03:11:16;21.30;99.90
10282;DHT22;5186;59.472;18.048;2022-08-19T03:13:42;21.20;99.90
10282;DHT22;5186;59.472;18.048;2022-08-19T03:16:09;21.20;99.90
10282;DHT22;5186;59.472;18.048;2022-08-19T03:18:35;21.20;99.90
10282;DHT22;5186;59.472;18.048;2022-08-19T03:21:00;21.20;99.90
10282;DHT22;5186;59.472;18.048;2022-08-19T03:23:26;21.30;99.90
10282;DHT22;5186;59.472;18.048;2022-08-19T03:25:53;21.30;99.90
10282;DHT22;5186;59.472;18.048;2022-08-19T03:28:19;21.30;99.90
10282;DHT22;5186;59.472;18.048;2022-08-19T03:31:05;21.30;99.90
10282;DHT22;5186;59.472;18.048;2022-08-19T03:33:35;21.30;99.90
10282;DHT22;5186;59.472;18.048;2022-08-19T03:38:28;21.30;99.90
10282;DHT22;5186;59.472;18.048;2022-08-19T03:40:53;21.30;99.90
10282;DHT22;5186;59.472;18.048;2022-08-19T03:43:19;21.30;99.90
10282;DHT22;5186;59.472;18.048;2022-08-19T03:45:44;21.30;99.90
10282;DHT22;5186;59.472;18.048;2022-08-19T03:48:10;21.30;99.90
10282;DHT22;5186;59.472;18.048;2022-08-19T03:50:42;21.30;99.90
10282;DHT22;5186;59.472;18.048;2022-08-19T03:53:08;21.30;99.90
10282;DHT22;5186;59.472;18.048;2022-08-19T03:55:39;21.30;99.90
10282;DHT22;5186;59.472;18.048;2022-08-19T03:58:05;21.40;99.90
10282;DHT22;5186;59.472;18.048;2022-08-19T04:00:32;21.30;99.90
10282;DHT22;5186;59.472;18.048;2022-08-19T04:02:58;21.40;99.90
10282;DHT22;5186;59.472;18.048;2022-08-19T04:05:25;21.40;99.90
10282;DHT22;5186;59.472;18.048;2022-08-19T04:07:52;21.40;99.90
10282;DHT22;5186;59.472;18.048;2022-08-19T04:10:18;21.40;99.90
10282;DHT22;5186;59.472;18.048;2022-08-19T04:12:44;21.40;99.90
10282;DHT22;5186;59.472;18.048;2022-08-19T04:15:10;21.50;99.90
10282;DHT22;5186;59.472;18.048;2022-08-19T04:17:35;21.50;99.90
10282;DHT22;5186;59.472;18.048;2022-08-19T04:20:01;21.50;99.90
10282;DHT22;5186;59.472;18.048;2022-08-19T04:22:27;21.50;99.90
10282;DHT22;5186;59.472;18.048;2022-08-19T04:24:52;21.50;99.90
10282;DHT22;5186;59.472;18.048;2022-08-19T04:27:18;21.50;99.90
10282;DHT22;5186;59.472;18.048;2022-08-19T04:29:43;21.50;99.90
10282;DHT22;5186;59.472;18.048;2022-08-19T04:32:09;21.60;99.90
10282;DHT22;5186;59.472;18.048;2022-08-19T04:34:35;21.60;99.90
10282;DHT22;5186;59.472;18.048;2022-08-19T04:37:00;21.60;99.90
10282;DHT22;5186;59.472;18.048;2022-08-19T04:39:29;21.60;99.90
10282;DHT22;5186;59.472;18.048;2022-08-19T04:42:14;21.70;99.90
10282;DHT22;5186;59.472;18.048;2022-08-19T04:44:59;21.60;99.90
10282;DHT22;5186;59.472;18.048;2022-08-19T04:47:25;21.60;99.90
10282;DHT22;5186;59.472;18.048;2022-08-19T04:49:50;21.60;99.90
10282;DHT22;5186;59.472;18.048;2022-08-19T04:52:16;21.70;99.90
10282;DHT22;5186;59.472;18.048;2022-08-19T04:54:42;21.70;99.90
10282;DHT22;5186;59.472;18.048;2022-08-19T04:57:08;21.70;99.90
10282;DHT22;5186;59.472;18.048;2022-08-19T04:59:36;21.60;99.90
10282;DHT22;5186;59.472;18.048;2022-08-19T05:02:03;21.60;99.90
10282;DHT22;5186;59.472;18.048;2022-08-19T05:04:29;21.60;99.90
10282;DHT22;5186;59.472;18.048;2022-08-19T05:06:56;21.60;99.90
10282;DHT22;5186;59.472;18.048;2022-08-19T05:09:21;21.70;99.90
10282;DHT22;5186;59.472;18.048;2022-08-19T05:11:47;21.70;99.90
10282;DHT22;5186;59.472;18.048;2022-08-19T05:14:15;21.80;99.90
10282;DHT22;5186;59.472;18.048;2022-08-19T05:16:40;21.80;99.90
10282;DHT22;5186;59.472;18.048;2022-08-19T05:19:06;21.80;99.90
10282;DHT22;5186;59.472;18.048;2022-08-19T05:21:50;21.80;99.90
10282;DHT22;5186;59.472;18.048;2022-08-19T05:24:34;21.90;99.90
10282;DHT22;5186;59.472;18.048;2022-08-19T05:27:01;21.90;99.90
10282;DHT22;5186;59.472;18.048;2022-08-19T05:29:29;21.90;99.90
10282;DHT22;5186;59.472;18.048;2022-08-19T05:31:55;22.00;99.90
10282;DHT22;5186;59.472;18.048;2022-08-19T05:34:22;22.00;99.90
10282;DHT22;5186;59.472;18.048;2022-08-19T05:36:54;22.00;99.90
10282;DHT22;5186;59.472;18.048;2022-08-19T05:39:23;22.00;99.90
10282;DHT22;5186;59.472;18.048;2022-08-19T05:41:53;22.00;99.90
10282;DHT22;5186;59.472;18.048;2022-08-19T05:44:20;22.00;99.90
10282;DHT22;5186;59.472;18.048;2022-08-19T05:46:47;22.00;99.90
10282;DHT22;5186;59.472;18.048;2022-08-19T05:49:14;22.00;99.90
10282;DHT22;5186;59.472;18.048;2022-08-19T05:51:41;22.00;99.90
10282;DHT22;5186;59.472;18.048;2022-08-19T05:54:07;22.00;99.90
10282;DHT22;5186;59.472;18.048;2022-08-19T05:56:34;22.10;99.90
10282;DHT22;5186;59.472;18.048;2022-08-19T05:59:04;22.10;99.90
10282;DHT22;5186;59.472;18.048;2022-08-19T06:01:33;22.20;99.90
10282;DHT22;5186;59.472;18.048;2022-08-19T06:04:00;22.20;99.90
10282;DHT22;5186;59.472;18.048;2022-08-19T06:06:25;22.20;99.90
10282;DHT22;5186;59.472;18.048;2022-08-19T06:08:51;22.30;99.90
10282;DHT22;5186;59.472;18.048;2022-08-19T06:11:24;22.30;99.90
10282;DHT22;5186;59.472;18.048;2022-08-19T06:13:53;22.40;99.90
10282;DHT22;5186;59.472;18.048;2022-08-19T06:16:22;22.40;99.90
10282;DHT22;5186;59.472;18.048;2022-08-19T06:18:52;22.40;99.90
10282;DHT22;5186;59.472;18.048;2022-08-19T06:21:23;22.50;99.90
10282;DHT22;5186;59.472;18.048;2022-08-19T06:23:49;22.50;99.90
10282;DHT22;5186;59.472;18.048;2022-08-19T06:26:18;22.50;99.90
10282;DHT22;5186;59.472;18.048;2022-08-19T06:28:44;22.60;99.90
10282;DHT22;5186;59.472;18.048;2022-08-19T06:31:21;22.60;99.90
10282;DHT22;5186;59.472;18.048;2022-08-19T06:33:48;22.60;99.90
10282;DHT22;5186;59.472;18.048;2022-08-19T06:36:28;22.70;99.90
10282;DHT22;5186;59.472;18.048;2022-08-19T06:39:00;22.70;99.90
10282;DHT22;5186;59.472;18.048;2022-08-19T06:41:27;22.70;99.90
10282;DHT22;5186;59.472;18.048;2022-08-19T06:43:54;22.70;99.90
10282;DHT22;5186;59.472;18.048;2022-08-19T06:46:19;22.70;99.90
10282;DHT22;5186;59.472;18.048;2022-08-19T06:48:46;22.80;99.90
10282;DHT22;5186;59.472;18.048;2022-08-19T06:51:16;22.80;99.90
10282;DHT22;5186;59.472;18.048;2022-08-19T06:53:45;22.90;99.90
10282;DHT22;5186;59.472;18.048;2022-08-19T06:56:13;22.90;99.90
10282;DHT22;5186;59.472;18.048;2022-08-19T06:58:39;23.00;99.90
10282;DHT22;5186;59.472;18.048;2022-08-19T07:01:05;23.00;99.90
10282;DHT22;5186;59.472;18.048;2022-08-19T07:03:33;23.10;99.90
10282;DHT22;5186;59.472;18.048;2022-08-19T07:06:06;23.20;99.90
10282;DHT22;5186;59.472;18.048;2022-08-19T07:08:33;23.20;99.90
10282;DHT22;5186;59.472;18.048;2022-08-19T07:11:02;23.30;99.90
10282;DHT22;5186;59.472;18.048;2022-08-19T07:13:30;23.30;99.90
10282;DHT22;5186;59.472;18.048;2022-08-19T07:16:02;23.40;99.90
10282;DHT22;5186;59.472;18.048;2022-08-19T07:18:27;23.50;99.90
10282;DHT22;5186;59.472;18.048;2022-08-19T07:21:06;23.50;99.90
10282;DHT22;5186;59.472;18.048;2022-08-19T07:23:32;23.60;99.90
10282;DHT22;5186;59.472;18.048;2022-08-19T07:26:09;23.70;99.90
10282;DHT22;5186;59.472;18.048;2022-08-19T07:28:35;23.80;99.90
10282;DHT22;5186;59.472;18.048;2022-08-19T07:31:07;23.80;99.90
10282;DHT22;5186;59.472;18.048;2022-08-19T07:33:34;23.80;99.90
10282;DHT22;5186;59.472;18.048;2022-08-19T07:36:06;23.90;99.90
10282;DHT22;5186;59.472;18.048;2022-08-19T07:38:33;24.00;99.90
10282;DHT22;5186;59.472;18.048;2022-08-19T07:41:00;24.10;99.90
10282;DHT22;5186;59.472;18.048;2022-08-19T07:43:27;24.10;99.90
10282;DHT22;5186;59.472;18.048;2022-08-19T07:45:54;24.20;99.90
10282;DHT22;5186;59.472;18.048;2022-08-19T07:48:23;24.20;99.90
10282;DHT22;5186;59.472;18.048;2022-08-19T07:50:55;24.30;99.90
10282;DHT22;5186;59.472;18.048;2022-08-19T07:53:23;24.40;99.90
10282;DHT22;5186;59.472;18.048;2022-08-19T07:55:48;24.40;99.90
10282;DHT22;5186;59.472;18.048;2022-08-19T07:58:18;24.50;99.90
10282;DHT22;5186;59.472;18.048;2022-08-19T08:00:45;24.50;99.90
10282;DHT22;5186;59.472;18.048;2022-08-19T08:03:12;24.60;99.90
10282;DHT22;5186;59.472;18.048;2022-08-19T08:05:37;24.60;99.90
10282;DHT22;5186;59.472;18.048;2022-08-19T08:08:22;24.70;99.90
10282;DHT22;5186;59.472;18.048;2022-08-19T08:10:57;24.80;99.90
10282;DHT22;5186;59.472;18.048;2022-08-19T08:13:23;24.90;99.90
10282;DHT22;5186;59.472;18.048;2022-08-19T08:15:49;25.00;99.90
10282;DHT22;5186;59.472;18.048;2022-08-19T08:18:15;25.00;99.90
10282;DHT22;5186;59.472;18.048;2022-08-19T08:20:40;25.10;99.90
10282;DHT22;5186;59.472;18.048;2022-08-19T08:23:06;25.10;99.90
10282;DHT22;5186;59.472;18.048;2022-08-19T08:25:47;25.20;99.90
10282;DHT22;5186;59.472;18.048;2022-08-19T08:28:14;25.30;99.90
10282;DHT22;5186;59.472;18.048;2022-08-19T08:30:40;25.30;99.90
10282;DHT22;5186;59.472;18.048;2022-08-19T08:33:07;25.40;99.90
10282;DHT22;5186;59.472;18.048;2022-08-19T08:35:34;25.40;99.90
10282;DHT22;5186;59.472;18.048;2022-08-19T08:37:59;25.50;99.90
10282;DHT22;5186;59.472;18.048;2022-08-19T08:40:39;25.50;99.90
10282;DHT22;5186;59.472;18.048;2022-08-19T08:45:41;25.70;99.90
10282;DHT22;5186;59.472;18.048;2022-08-19T08:48:19;25.70;99.90
10282;DHT22;5186;59.472;18.048;2022-08-19T08:50:47;25.80;99.90
10282;DHT22;5186;59.472;18.048;2022-08-19T08:53:14;25.80;99.90
10282;DHT22;5186;59.472;18.048;2022-08-19T08:55:41;25.90;99.90
10282;DHT22;5186;59.472;18.048;2022-08-19T08:58:19;25.90;99.90
10282;DHT22;5186;59.472;18.048;2022-08-19T09:00:47;26.00;99.90
10282;DHT22;5186;59.472;18.048;2022-08-19T09:03:20;26.00;99.90
10282;DHT22;5186;59.472;18.048;2022-08-19T09:08:40;26.20;99.90
10282;DHT22;5186;59.472;18.048;2022-08-19T09:11:13;26.30;99.90
10282;DHT22;5186;59.472;18.048;2022-08-19T09:16:21;26.40;99.90
10282;DHT22;5186;59.472;18.048;2022-08-19T09:18:55;26.40;99.90
10282;DHT22;5186;59.472;18.048;2022-08-19T09:21:24;26.50;99.90
10282;DHT22;5186;59.472;18.048;2022-08-19T09:23:51;26.50;99.90
10282;DHT22;5186;59.472;18.048;2022-08-19T09:26:21;26.60;99.90
10282;DHT22;5186;59.472;18.048;2022-08-19T09:28:48;26.60;99.90
10282;DHT22;5186;59.472;18.048;2022-08-19T09:31:18;26.70;99.90
10282;DHT22;5186;59.472;18.048;2022-08-19T09:33:44;26.70;99.90
10282;DHT22;5186;59.472;18.048;2022-08-19T09:36:13;26.80;99.90
10282;DHT22;5186;59.472;18.048;2022-08-19T09:38:39;26.80;99.90
10282;DHT22;5186;59.472;18.048;2022-08-19T09:41:08;26.90;99.90
10282;DHT22;5186;59.472;18.048;2022-08-19T09:43:36;26.90;99.90
10282;DHT22;5186;59.472;18.048;2022-08-19T09:46:03;27.00;99.90
10282;DHT22;5186;59.472;18.048;2022-08-19T09:48:32;27.00;99.90
10282;DHT22;5186;59.472;18.048;2022-08-19T09:51:09;27.10;99.90
10282;DHT22;5186;59.472;18.048;2022-08-19T09:53:36;27.20;99.90
10282;DHT22;5186;59.472;18.048;2022-08-19T09:56:03;27.20;99.90
10282;DHT22;5186;59.472;18.048;2022-08-19T09:58:29;27.30;99.90
10282;DHT22;5186;59.472;18.048;2022-08-19T10:00:56;27.40;99.90
10282;DHT22;5186;59.472;18.048;2022-08-19T10:03:23;27.40;99.90
10282;DHT22;5186;59.472;18.048;2022-08-19T10:05:49;27.40;99.90
10282;DHT22;5186;59.472;18.048;2022-08-19T10:08:24;27.50;99.90
10282;DHT22;5186;59.472;18.048;2022-08-19T10:10:51;27.50;99.90
10282;DHT22;5186;59.472;18.048;2022-08-19T10:13:19;27.60;99.90
10282;DHT22;5186;59.472;18.048;2022-08-19T10:15:49;27.60;99.90
10282;DHT22;5186;59.472;18.048;2022-08-19T10:18:19;27.60;99.90
10282;DHT22;5186;59.472;18.048;2022-08-19T10:20:46;27.70;99.90
10282;DHT22;5186;59.472;18.048;2022-08-19T10:23:13;27.70;99.90
10282;DHT22;5186;59.472;18.048;2022-08-19T10:25:39;27.70;99.90
10282;DHT22;5186;59.472;18.048;2022-08-19T10:28:04;27.80;99.90
10282;DHT22;5186;59.472;18.048;2022-08-19T10:30:33;27.80;99.90
10282;DHT22;5186;59.472;18.048;2022-08-19T10:32:58;27.90;99.90
10282;DHT22;5186;59.472;18.048;2022-08-19T10:35:24;27.90;99.90
10282;DHT22;5186;59.472;18.048;2022-08-19T10:37:55;28.00;99.90
10282;DHT22;5186;59.472;18.048;2022-08-19T10:40:25;28.00;99.90
10282;DHT22;5186;59.472;18.048;2022-08-19T10:42:51;28.00;99.90
10282;DHT22;5186;59.472;18.048;2022-08-19T10:45:17;28.00;99.90
10282;DHT22;5186;59.472;18.048;2022-08-19T10:47:42;28.10;99.90
10282;DHT22;5186;59.472;18.048;2022-08-19T10:50:08;28.10;99.90
10282;DHT22;5186;59.472;18.048;2022-08-19T10:52:52;28.10;99.90
10282;DHT22;5186;59.472;18.048;2022-08-19T10:55:22;28.20;99.90
10282;DHT22;5186;59.472;18.048;2022-08-19T10:58:14;28.20;99.90
10282;DHT22;5186;59.472;18.048;2022-08-19T11:00:41;28.30;99.90
10282;DHT22;5186;59.472;18.048;2022-08-19T11:03:08;28.30;99.90
10282;DHT22;5186;59.472;18.048;2022-08-19T11:05:34;28.30;99.90
10282;DHT22;5186;59.472;18.048;2022-08-19T11:07:59;28.40;99.90
10282;DHT22;5186;59.472;18.048;2022-08-19T11:10:25;28.50;99.90
10282;DHT22;5186;59.472;18.048;2022-08-19T11:12:50;28.60;99.90
10282;DHT22;5186;59.472;18.048;2022-08-19T11:15:19;28.60;99.90
10282;DHT22;5186;59.472;18.048;2022-08-19T11:17:45;28.70;99.90
10282;DHT22;5186;59.472;18.048;2022-08-19T11:20:12;28.70;99.90
10282;DHT22;5186;59.472;18.048;2022-08-19T11:22:39;28.80;99.90
10282;DHT22;5186;59.472;18.048;2022-08-19T11:25:06;28.70;99.90
10282;DHT22;5186;59.472;18.048;2022-08-19T11:27:32;28.80;99.90
10282;DHT22;5186;59.472;18.048;2022-08-19T11:29:59;28.70;99.90
10282;DHT22;5186;59.472;18.048;2022-08-19T11:32:25;28.80;99.90
10282;DHT22;5186;59.472;18.048;2022-08-19T11:34:51;28.90;99.90
10282;DHT22;5186;59.472;18.048;2022-08-19T11:37:17;28.90;99.90
10282;DHT22;5186;59.472;18.048;2022-08-19T11:39:42;28.90;99.90
10282;DHT22;5186;59.472;18.048;2022-08-19T11:42:08;29.00;99.90
10282;DHT22;5186;59.472;18.048;2022-08-19T11:44:53;29.00;99.90
10282;DHT22;5186;59.472;18.048;2022-08-19T11:47:19;29.00;99.90
10282;DHT22;5186;59.472;18.048;2022-08-19T11:49:46;29.10;99.90
10282;DHT22;5186;59.472;18.048;2022-08-19T11:52:12;29.10;99.90
10282;DHT22;5186;59.472;18.048;2022-08-19T11:54:37;29.20;99.90
10282;DHT22;5186;59.472;18.048;2022-08-19T11:57:03;29.20;99.90
10282;DHT22;5186;59.472;18.048;2022-08-19T11:59:29;29.20;99.90
10282;DHT22;5186;59.472;18.048;2022-08-19T12:01:55;29.30;99.90
10282;DHT22;5186;59.472;18.048;2022-08-19T12:04:22;29.30;99.90
10282;DHT22;5186;59.472;18.048;2022-08-19T12:06:47;29.30;99.90
10282;DHT22;5186;59.472;18.048;2022-08-19T12:09:13;29.40;99.90
10282;DHT22;5186;59.472;18.048;2022-08-19T12:11:40;29.50;99.90
10282;DHT22;5186;59.472;18.048;2022-08-19T12:14:10;29.60;99.90
10282;DHT22;5186;59.472;18.048;2022-08-19T12:16:37;29.70;99.90
10282;DHT22;5186;59.472;18.048;2022-08-19T12:19:04;29.70;99.90
10282;DHT22;5186;59.472;18.048;2022-08-19T12:21:32;29.70;99.90
10282;DHT22;5186;59.472;18.048;2022-08-19T12:23:59;29.80;99.90
10282;DHT22;5186;59.472;18.048;2022-08-19T12:26:26;29.80;99.90
10282;DHT22;5186;59.472;18.048;2022-08-19T12:28:53;29.80;99.90
10282;DHT22;5186;59.472;18.048;2022-08-19T12:31:19;29.90;99.90
10282;DHT22;5186;59.472;18.048;2022-08-19T12:33:45;29.90;99.90
10282;DHT22;5186;59.472;18.048;2022-08-19T12:36:13;29.90;99.90
10282;DHT22;5186;59.472;18.048;2022-08-19T12:38:39;29.90;99.90
10282;DHT22;5186;59.472;18.048;2022-08-19T12:41:06;29.90;99.90
10282;DHT22;5186;59.472;18.048;2022-08-19T12:43:35;29.90;99.90
10282;DHT22;5186;59.472;18.048;2022-08-19T12:46:02;30.00;99.90
10282;DHT22;5186;59.472;18.048;2022-08-19T12:48:30;30.00;99.90
10282;DHT22;5186;59.472;18.048;2022-08-19T12:50:56;30.00;99.90
10282;DHT22;5186;59.472;18.048;2022-08-19T12:53:22;30.00;99.90
10282;DHT22;5186;59.472;18.048;2022-08-19T12:55:53;30.00;99.90
10282;DHT22;5186;59.472;18.048;2022-08-19T12:58:21;30.10;99.90
10282;DHT22;5186;59.472;18.048;2022-08-19T13:00:47;30.10;99.90
10282;DHT22;5186;59.472;18.048;2022-08-19T13:03:13;30.10;99.90
10282;DHT22;5186;59.472;18.048;2022-08-19T13:05:39;30.10;99.90
10282;DHT22;5186;59.472;18.048;2022-08-19T13:08:04;30.10;99.90
10282;DHT22;5186;59.472;18.048;2022-08-19T13:10:33;30.10;99.90
10282;DHT22;5186;59.472;18.048;2022-08-19T13:13:01;30.10;99.90
10282;DHT22;5186;59.472;18.048;2022-08-19T13:15:27;30.10;99.90
10282;DHT22;5186;59.472;18.048;2022-08-19T13:17:54;30.10;99.90
10282;DHT22;5186;59.472;18.048;2022-08-19T13:20:21;30.20;99.90
10282;DHT22;5186;59.472;18.048;2022-08-19T13:22:48;30.20;99.90
10282;DHT22;5186;59.472;18.048;2022-08-19T13:25:15;30.30;99.90
10282;DHT22;5186;59.472;18.048;2022-08-19T13:27:43;30.30;99.90
10282;DHT22;5186;59.472;18.048;2022-08-19T13:30:13;30.20;99.90
10282;DHT22;5186;59.472;18.048;2022-08-19T13:32:57;30.20;99.90
10282;DHT22;5186;59.472;18.048;2022-08-19T13:35:50;30.30;99.90
10282;DHT22;5186;59.472;18.048;2022-08-19T13:38:20;30.20;99.90
10282;DHT22;5186;59.472;18.048;2022-08-19T13:40:47;30.20;99.90
10282;DHT22;5186;59.472;18.048;2022-08-19T13:43:16;30.20;99.90
10282;DHT22;5186;59.472;18.048;2022-08-19T13:45:41;30.30;99.90
10282;DHT22;5186;59.472;18.048;2022-08-19T13:48:08;30.30;99.90
10282;DHT22;5186;59.472;18.048;2022-08-19T13:50:39;30.30;99.90
10282;DHT22;5186;59.472;18.048;2022-08-19T13:53:07;30.30;99.90
10282;DHT22;5186;59.472;18.048;2022-08-19T13:55:33;30.40;99.90
10282;DHT22;5186;59.472;18.048;2022-08-19T13:58:01;30.40;99.90
10282;DHT22;5186;59.472;18.048;2022-08-19T14:00:31;30.50;99.90
10282;DHT22;5186;59.472;18.048;2022-08-19T14:02:57;30.50;99.90
10282;DHT22;5186;59.472;18.048;2022-08-19T14:05:24;30.50;99.90
10282;DHT22;5186;59.472;18.048;2022-08-19T14:07:51;30.50;99.90
10282;DHT22;5186;59.472;18.048;2022-08-19T14:10:17;30.50;99.90
10282;DHT22;5186;59.472;18.048;2022-08-19T14:12:44;30.50;99.90
10282;DHT22;5186;59.472;18.048;2022-08-19T14:15:11;30.50;99.90
10282;DHT22;5186;59.472;18.048;2022-08-19T14:17:42;30.60;99.90
10282;DHT22;5186;59.472;18.048;2022-08-19T14:20:09;30.50;99.90
10282;DHT22;5186;59.472;18.048;2022-08-19T14:22:37;30.50;99.90
10282;DHT22;5186;59.472;18.048;2022-08-19T14:25:05;30.50;99.90
10282;DHT22;5186;59.472;18.048;2022-08-19T14:27:36;30.50;99.90
10282;DHT22;5186;59.472;18.048;2022-08-19T14:30:03;30.50;99.90
10282;DHT22;5186;59.472;18.048;2022-08-19T14:32:29;30.60;99.90
10282;DHT22;5186;59.472;18.048;2022-08-19T14:34:55;30.50;99.90
10282;DHT22;5186;59.472;18.048;2022-08-19T14:37:21;30.50;99.90
10282;DHT22;5186;59.472;18.048;2022-08-19T14:39:49;30.40;99.90
10282;DHT22;5186;59.472;18.048;2022-08-19T14:42:15;30.50;99.90
10282;DHT22;5186;59.472;18.048;2022-08-19T14:44:42;30.40;99.90
10282;DHT22;5186;59.472;18.048;2022-08-19T14:47:08;30.30;99.90
10282;DHT22;5186;59.472;18.048;2022-08-19T14:49:34;30.30;99.90
10282;DHT22;5186;59.472;18.048;2022-08-19T14:52:00;30.30;99.90
10282;DHT22;5186;59.472;18.048;2022-08-19T14:54:25;30.30;99.90
10282;DHT22;5186;59.472;18.048;2022-08-19T14:56:51;30.30;99.90
10282;DHT22;5186;59.472;18.048;2022-08-19T14:59:17;30.30;99.90
10282;DHT22;5186;59.472;18.048;2022-08-19T15:01:42;30.30;99.90
10282;DHT22;5186;59.472;18.048;2022-08-19T15:04:08;30.30;99.90
10282;DHT22;5186;59.472;18.048;2022-08-19T15:06:34;30.30;99.90
10282;DHT22;5186;59.472;18.048;2022-08-19T15:09:00;30.30;99.90
10282;DHT22;5186;59.472;18.048;2022-08-19T15:11:27;30.30;99.90
10282;DHT22;5186;59.472;18.048;2022-08-19T15:13:55;30.20;99.90
10282;DHT22;5186;59.472;18.048;2022-08-19T15:16:22;30.30;99.90
10282;DHT22;5186;59.472;18.048;2022-08-19T15:18:54;30.20;99.90
10282;DHT22;5186;59.472;18.048;2022-08-19T15:21:20;30.20;99.90
10282;DHT22;5186;59.472;18.048;2022-08-19T15:23:47;30.20;99.90
10282;DHT22;5186;59.472;18.048;2022-08-19T15:26:14;30.30;99.90
10282;DHT22;5186;59.472;18.048;2022-08-19T15:28:41;30.30;99.90
10282;DHT22;5186;59.472;18.048;2022-08-19T15:31:07;30.30;99.90
10282;DHT22;5186;59.472;18.048;2022-08-19T15:33:34;30.30;99.90
10282;DHT22;5186;59.472;18.048;2022-08-19T15:36:03;30.30;99.90
10282;DHT22;5186;59.472;18.048;2022-08-19T15:38:31;30.30;99.90
10282;DHT22;5186;59.472;18.048;2022-08-19T15:41:00;30.40;99.90
10282;DHT22;5186;59.472;18.048;2022-08-19T15:43:47;30.40;99.90
10282;DHT22;5186;59.472;18.048;2022-08-19T15:46:20;30.40;99.90